Time;durP1;ratioP1;P1;durP2;ratioP2;P2;SDS_P1;SDS_P2;PMS_P1;PMS_P2;Temp;Humidity;BMP_temperature;BMP_pressure;BME280_temperature;BME280_humidity;BME280_pressure;Samples;Min_cycle;Max_cycle;Signal;HPM_P1;HPM_P2
2020/12/18 00:05:44;;;;;;;25.67;12.90;;;20.80;57.60;;;;;;20980112;28;20044;-17
2020/12/18 00:15:44;;;;;;;24.23;11.47;;;20.80;59.20;;;;;;21002897;28;20073;-17
2020/12/18 00:25:49;;;;;;;24.02;11.18;;;20.80;58.80;;;;;;21010881;28;20073;-16
2020/12/18 00:35:50;;;;;;;19.13;9.98;;;20.80;58.20;;;;;;21044809;28;20020;-16
2020/12/18 00:45:50;;;;;;;21.33;9.65;;;20.60;58.30;;;;;;21034423;28;20031;-16
2020/12/18 00:55:51;;;;;;;19.13;9.98;;;20.50;58.70;;;;;;21025500;28;20089;-16
2020/12/18 01:05:51;;;;;;;17.85;8.65;;;20.40;59.10;;;;;;21019667;28;20044;-16
2020/12/18 01:15:52;;;;;;;21.98;9.25;;;20.30;59.70;;;;;;21025343;28;20026;-16
2020/12/18 01:25:52;;;;;;;13.82;7.60;;;20.20;59.00;;;;;;20970446;22;20162;-16
2020/12/18 01:35:53;;;;;;;14.50;7.93;;;20.10;58.90;;;;;;20921772;28;20033;-16
2020/12/18 01:46:02;;;;;;;19.70;7.97;;;20.10;58.80;;;;;;20902235;28;20017;-16
2020/12/18 01:56:03;;;;;;;13.45;7.40;;;20.10;58.90;;;;;;20914470;28;20036;-16
2020/12/18 02:06:15;;;;;;;10.15;5.25;;;20.00;58.90;;;;;;20903105;28;20106;-17
2020/12/18 02:16:16;;;;;;;8.38;4.97;;;20.00;58.80;;;;;;20900567;28;20497;-15
2020/12/18 02:26:18;;;;;;;8.82;4.22;;;20.00;58.40;;;;;;20911054;28;20036;-16
2020/12/18 02:36:26;;;;;;;8.57;4.65;;;20.00;57.70;;;;;;20916752;28;20029;-16
2020/12/18 02:46:26;;;;;;;8.30;4.50;;;19.90;58.10;;;;;;20940496;28;20047;-16
2020/12/18 02:56:27;;;;;;;9.05;4.60;;;19.90;58.10;;;;;;20937316;28;20639;-16
2020/12/18 03:06:27;;;;;;;8.93;4.50;;;19.90;58.00;;;;;;20937436;28;20556;-15
2020/12/18 03:16:28;;;;;;;6.45;3.95;;;19.80;57.80;;;;;;20940762;28;20476;-15
2020/12/18 03:26:29;;;;;;;8.70;5.07;;;19.80;57.80;;;;;;20943626;28;20119;-15
2020/12/18 03:36:30;;;;;;;6.45;3.78;;;19.80;57.70;;;;;;20934713;28;20388;-15
2020/12/18 03:46:30;;;;;;;7.33;3.37;;;19.70;57.70;;;;;;20939101;28;20037;-15
2020/12/18 03:56:31;;;;;;;6.32;3.25;;;19.70;57.50;;;;;;20947419;28;20546;-15
2020/12/18 04:06:31;;;;;;;6.30;3.17;;;19.70;57.30;;;;;;20936444;28;20035;-16
2020/12/18 04:16:32;;;;;;;4.47;3.33;;;19.60;57.20;;;;;;20935745;28;20029;-15
2020/12/18 04:26:32;;;;;;;6.30;2.97;;;19.60;57.10;;;;;;20935457;28;20025;-15
2020/12/18 04:36:33;;;;;;;5.03;2.40;;;19.60;57.10;;;;;;20933628;28;20102;-15
2020/12/18 04:46:36;;;;;;;8.70;2.00;;;19.60;57.00;;;;;;20930306;28;20024;-15
2020/12/18 04:56:38;;;;;;;5.35;2.10;;;19.50;56.80;;;;;;20932195;28;20043;-15
2020/12/18 05:06:39;;;;;;;4.03;1.80;;;19.50;56.80;;;;;;20918430;28;20029;-15
2020/12/18 05:16:40;;;;;;;2.00;1.23;;;19.40;56.60;;;;;;20902473;28;20459;-16
2020/12/18 05:26:41;;;;;;;3.15;1.80;;;19.80;55.90;;;;;;20909376;28;20041;-15
2020/12/18 05:36:42;;;;;;;4.43;1.77;;;20.30;54.90;;;;;;20901677;28;20024;-15
2020/12/18 05:46:42;;;;;;;3.80;1.50;;;21.00;53.00;;;;;;20900991;28;20029;-16
2020/12/18 05:56:48;;;;;;;4.45;1.48;;;21.60;51.20;;;;;;20888746;28;20080;-15
2020/12/18 06:06:50;;;;;;;3.22;1.48;;;22.00;50.10;;;;;;20905853;28;20586;-16
2020/12/18 06:16:53;;;;;;;9.45;1.45;;;21.90;50.20;;;;;;20915403;28;20040;-15
2020/12/18 06:26:56;;;;;;;4.13;1.30;;;21.60;50.30;;;;;;20916105;28;20028;-15
2020/12/18 06:37:00;;;;;;;4.15;1.60;;;21.50;50.70;;;;;;20914742;28;20082;-16
2020/12/18 06:47:07;;;;;;;10.90;2.75;;;21.40;51.10;;;;;;20914729;28;20025;-15
2020/12/18 06:57:20;;;;;;;13.35;2.65;;;21.30;51.40;;;;;;20916547;28;20024;-16
2020/12/18 07:07:21;;;;;;;12.02;2.38;;;21.20;51.50;;;;;;20916409;28;20064;-15
2020/12/18 07:17:22;;;;;;;12.00;4.20;;;21.20;51.50;;;;;;20939069;22;20033;-16
2020/12/18 07:27:22;;;;;;;10.13;2.75;;;21.20;51.60;;;;;;21005733;28;20494;-16
2020/12/18 07:37:23;;;;;;;7.78;2.60;;;21.10;51.60;;;;;;21056707;28;20060;-16
2020/12/18 07:47:24;;;;;;;7.75;2.17;;;21.10;51.50;;;;;;21073766;28;20454;-17
2020/12/18 07:57:25;;;;;;;7.90;1.73;;;21.10;51.60;;;;;;21028026;28;20037;-16
2020/12/18 08:07:28;;;;;;;11.45;1.95;;;21.10;51.60;;;;;;21018613;28;20031;-16
2020/12/18 08:17:29;;;;;;;7.80;1.83;;;21.00;51.70;;;;;;20987795;28;20029;-16
2020/12/18 08:27:40;;;;;;;6.18;2.03;;;20.90;52.40;;;;;;21000826;28;20089;-16
2020/12/18 08:37:40;;;;;;;8.35;1.63;;;20.70;52.70;;;;;;21062663;28;20503;-17
2020/12/18 08:47:42;;;;;;;6.55;1.90;;;20.50;53.20;;;;;;20984690;28;20052;-16
2020/12/18 08:57:43;;;;;;;9.02;1.42;;;20.40;53.50;;;;;;21063251;28;20035;-16
2020/12/18 09:07:49;;;;;;;5.22;1.80;;;20.20;54.00;;;;;;20995616;28;20036;-16
2020/12/18 09:18:00;;;;;;;4.63;1.35;;;20.30;54.00;;;;;;21067940;28;20062;-17
2020/12/18 09:28:01;;;;;;;9.52;3.03;;;20.20;54.00;;;;;;21069134;28;20026;-16
2020/12/18 09:38:02;;;;;;;10.77;5.67;;;20.10;53.70;;;;;;21044653;28;20433;-17
2020/12/18 09:48:03;;;;;;;9.25;3.22;;;20.20;53.40;;;;;;21023519;28;20470;-16
2020/12/18 09:58:04;;;;;;;9.18;2.90;;;20.60;53.00;;;;;;21009400;28;20060;-17
2020/12/18 10:08:05;;;;;;;14.73;2.78;;;21.20;51.70;;;;;;21023654;28;20036;-17
2020/12/18 10:18:05;;;;;;;12.35;4.18;;;21.80;50.50;;;;;;21006586;28;20082;-17
2020/12/18 10:28:06;;;;;;;11.68;2.50;;;22.30;49.40;;;;;;21032763;28;20095;-17
2020/12/18 10:38:06;;;;;;;6.35;1.52;;;22.90;48.00;;;;;;21041808;28;20103;-17
2020/12/18 10:48:07;;;;;;;15.60;3.40;;;23.50;47.00;;;;;;21021124;28;20103;-17
2020/12/18 10:58:08;;;;;;;9.18;2.80;;;23.80;45.80;;;;;;21013190;28;20036;-16
2020/12/18 11:08:09;;;;;;;9.18;2.00;;;23.80;45.50;;;;;;21033290;28;20040;-15
2020/12/18 11:18:09;;;;;;;4.22;1.35;;;23.50;45.90;;;;;;21043400;28;20032;-16
2020/12/18 11:28:10;;;;;;;5.82;1.40;;;23.40;46.30;;;;;;21032704;28;20024;-16
2020/12/18 11:38:10;;;;;;;2.90;1.47;;;23.10;46.90;;;;;;21011583;28;20024;-17
2020/12/18 11:48:11;;;;;;;5.88;1.45;;;23.00;47.10;;;;;;21018950;28;21032;-17
2020/12/18 11:58:12;;;;;;;5.35;1.08;;;22.90;47.50;;;;;;21042083;28;20055;-17
2020/12/18 12:08:12;;;;;;;4.60;1.52;;;22.90;47.50;;;;;;21006340;28;20039;-17
2020/12/18 12:18:13;;;;;;;3.00;0.93;;;22.70;47.80;;;;;;21020314;28;20024;-17
2020/12/18 12:28:13;;;;;;;3.22;1.00;;;22.80;47.90;;;;;;20990704;28;20028;-17
2020/12/18 12:38:14;;;;;;;5.68;0.98;;;22.70;48.00;;;;;;21000783;28;20067;-17
2020/12/18 12:48:14;;;;;;;6.82;1.60;;;22.70;47.80;;;;;;20995941;28;20059;-17
2020/12/18 12:58:15;;;;;;;6.05;1.15;;;22.60;47.80;;;;;;21009764;28;20059;-17
2020/12/18 13:08:15;;;;;;;10.17;2.00;;;22.70;47.80;;;;;;20995310;28;20078;-17
2020/12/18 13:18:16;;;;;;;10.77;3.55;;;22.60;47.70;;;;;;20989961;28;20044;-16
2020/12/18 13:28:17;;;;;;;12.75;1.85;;;22.70;47.50;;;;;;21001826;28;20090;-17
2020/12/18 13:38:17;;;;;;;15.45;2.08;;;22.60;48.30;;;;;;20982760;28;20017;-17
2020/12/18 13:48:18;;;;;;;11.55;2.38;;;22.60;48.20;;;;;;21055253;22;20127;-16
2020/12/18 13:58:19;;;;;;;11.95;1.98;;;22.60;48.40;;;;;;20998298;28;20084;-16
2020/12/18 14:08:19;;;;;;;14.77;2.55;;;22.70;48.50;;;;;;21009273;28;20491;-17
2020/12/18 14:18:20;;;;;;;26.13;3.17;;;22.60;48.70;;;;;;21067614;28;20051;-16
2020/12/18 14:28:20;;;;;;;14.32;2.10;;;22.70;48.50;;;;;;21078776;28;20023;-17
2020/12/18 14:38:21;;;;;;;11.85;2.20;;;22.60;48.20;;;;;;21048239;28;20505;-16
2020/12/18 14:48:21;;;;;;;13.45;5.50;;;22.80;47.80;;;;;;21022629;28;20028;-17
2020/12/18 14:58:22;;;;;;;21.00;5.47;;;22.90;48.20;;;;;;21056375;28;20024;-16
2020/12/18 15:08:22;;;;;;;12.98;4.78;;;23.20;48.00;;;;;;21012995;28;20484;-17
2020/12/18 15:18:23;;;;;;;11.43;5.40;;;23.20;48.40;;;;;;21021530;28;20028;-17
2020/12/18 15:28:23;;;;;;;12.73;4.10;;;23.00;48.90;;;;;;21047392;28;20024;-17
2020/12/18 15:38:27;;;;;;;8.35;4.28;;;22.80;48.30;;;;;;21044859;28;20056;-16
2020/12/18 15:48:27;;;;;;;10.07;3.03;;;22.60;48.60;;;;;;21014245;28;20036;-16
2020/12/18 15:58:28;;;;;;;10.18;3.75;;;22.60;48.60;;;;;;21060513;28;20020;-16
2020/12/18 16:08:28;;;;;;;15.70;3.63;;;22.50;49.40;;;;;;21014655;28;20047;-16
2020/12/18 16:18:29;;;;;;;11.27;3.28;;;22.50;49.70;;;;;;21051634;28;20099;-16
2020/12/18 16:28:29;;;;;;;7.30;3.60;;;22.40;49.30;;;;;;21073630;28;20028;-16
2020/12/18 16:38:30;;;;;;;12.80;5.80;;;22.40;49.20;;;;;;21034615;28;20052;-16
2020/12/18 16:48:31;;;;;;;20.83;9.60;;;22.30;49.20;;;;;;21040862;28;20031;-16
2020/12/18 16:58:31;;;;;;;25.27;14.67;;;22.30;48.90;;;;;;21031348;28;20514;-16
2020/12/18 17:08:32;;;;;;;19.30;11.05;;;22.30;49.00;;;;;;21009195;28;20036;-16
2020/12/18 17:18:33;;;;;;;17.63;8.93;;;22.20;48.70;;;;;;21019721;28;20064;-17
2020/12/18 17:28:34;;;;;;;17.40;7.93;;;22.30;48.90;;;;;;21028509;28;20032;-17
2020/12/18 17:38:34;;;;;;;68.22;46.30;;;22.40;48.60;;;;;;21051928;28;20057;-16
2020/12/18 17:48:35;;;;;;;33.42;22.42;;;22.60;48.40;;;;;;21052859;28;20032;-16
2020/12/18 17:58:35;;;;;;;30.10;17.13;;;22.60;47.70;;;;;;21038197;28;20028;-16
2020/12/18 18:08:36;;;;;;;26.05;12.50;;;22.70;47.00;;;;;;21028133;28;20557;-17
2020/12/18 18:18:36;;;;;;;17.40;11.00;;;22.60;46.90;;;;;;21033469;28;20484;-17
2020/12/18 18:28:37;;;;;;;18.42;10.57;;;22.80;46.20;;;;;;21029956;28;20466;-17
2020/12/18 18:38:37;;;;;;;35.33;14.07;;;22.70;46.50;;;;;;21053466;28;20027;-17
2020/12/18 18:48:38;;;;;;;39.38;16.10;;;22.80;46.40;;;;;;21034221;28;20032;-16
2020/12/18 18:58:39;;;;;;;42.50;17.15;;;22.70;47.80;;;;;;21074556;28;20111;-16
2020/12/18 19:08:40;;;;;;;46.97;15.98;;;22.60;48.60;;;;;;21075681;28;20035;-16
2020/12/18 19:18:41;;;;;;;51.22;31.77;;;22.40;48.80;;;;;;21009052;28;20712;-16
2020/12/18 19:28:41;;;;;;;47.17;29.02;;;22.30;49.20;;;;;;21015290;28;20024;-17
2020/12/18 19:38:42;;;;;;;164.43;84.28;;;22.20;49.60;;;;;;21073527;28;20679;-16
2020/12/18 19:48:42;;;;;;;127.45;72.13;;;22.00;49.60;;;;;;21064004;22;20059;-16
2020/12/18 19:58:43;;;;;;;104.25;58.47;;;21.80;49.90;;;;;;21034287;28;20032;-16
2020/12/18 20:08:43;;;;;;;78.50;45.30;;;21.50;50.30;;;;;;21022216;28;20048;-16
2020/12/18 20:18:54;;;;;;;78.97;45.30;;;21.40;50.00;;;;;;21057324;28;20051;-16
2020/12/18 20:28:54;;;;;;;66.45;39.53;;;21.70;49.60;;;;;;21063982;28;20539;-16
2020/12/18 20:38:55;;;;;;;70.15;34.60;;;21.70;49.50;;;;;;21071237;28;20652;-16
2020/12/18 20:48:55;;;;;;;57.53;32.80;;;21.70;49.70;;;;;;21070507;28;20032;-16
2020/12/18 20:58:56;;;;;;;56.50;28.45;;;21.60;49.60;;;;;;21025683;28;20575;-16
2020/12/18 21:08:57;;;;;;;42.65;24.65;;;21.70;49.50;;;;;;21062366;28;20535;-16
2020/12/18 21:18:57;;;;;;;39.13;21.35;;;21.70;49.50;;;;;;21006140;28;20102;-16
2020/12/18 21:28:58;;;;;;;41.58;21.30;;;21.60;49.80;;;;;;20996798;28;20036;-16
2020/12/18 21:38:58;;;;;;;38.00;19.02;;;21.50;50.30;;;;;;21040110;28;20552;-16
2020/12/18 21:48:59;;;;;;;36.00;19.42;;;21.30;50.60;;;;;;21042589;28;20213;-16
2020/12/18 21:59:00;;;;;;;34.83;20.50;;;21.30;50.60;;;;;;21043743;28;20062;-16
2020/12/18 22:09:04;;;;;;;25.45;18.13;;;21.00;51.40;;;;;;21049204;28;20160;-17
2020/12/18 22:19:04;;;;;;;32.95;19.33;;;20.90;51.50;;;;;;21044024;28;20031;-16
2020/12/18 22:29:05;;;;;;;29.33;19.85;;;20.90;51.60;;;;;;21046393;28;20111;-16
2020/12/18 22:39:07;;;;;;;31.90;17.92;;;20.80;51.60;;;;;;21024364;28;20032;-16
2020/12/18 22:49:08;;;;;;;25.13;15.38;;;20.70;51.80;;;;;;21023126;28;20036;-16
2020/12/18 22:59:08;;;;;;;31.20;15.38;;;20.80;51.10;;;;;;21014368;28;20396;-16
2020/12/18 23:09:09;;;;;;;25.10;14.20;;;20.70;51.20;;;;;;20990965;28;20492;-16
2020/12/18 23:19:10;;;;;;;26.90;14.10;;;20.60;51.20;;;;;;20990440;28;20578;-16
2020/12/18 23:29:11;;;;;;;26.75;15.35;;;20.50;52.00;;;;;;21021072;28;20028;-16
2020/12/18 23:39:12;;;;;;;22.35;12.02;;;20.40;51.60;;;;;;21033950;28;20067;-16
2020/12/18 23:49:12;;;;;;;17.58;10.45;;;20.30;51.70;;;;;;21045787;28;20062;-16
2020/12/18 23:59:13;;;;;;;31.85;14.90;;;20.30;51.60;;;;;;21021753;28;20104;-16
